createdAt,value
2018-11-27T00:01:34.650Z,100017.23
2018-11-27T00:04:12.241Z,100018.17
2018-11-27T00:06:48.104Z,100015.78
2018-11-27T00:09:21.996Z,100013.97
2018-11-27T00:11:58.237Z,100015.78
2018-11-27T00:14:31.937Z,100018.22
2018-11-27T00:17:05.566Z,100020.41
2018-11-27T00:19:39.807Z,100025.20
2018-11-27T00:22:16.375Z,100024.38
2018-11-27T00:24:49.994Z,100023.50
2018-11-27T00:27:22.961Z,100024.08
2018-11-27T00:29:56.769Z,100022.41
2018-11-27T00:32:29.782Z,100023.09
2018-11-27T00:35:03.466Z,100021.67
2018-11-27T00:37:40.424Z,100020.13
2018-11-27T00:40:19.354Z,100022.21
2018-11-27T00:42:52.704Z,100018.22
2018-11-27T00:45:27.160Z,100022.56
2018-11-27T00:48:02.609Z,100019.94
2018-11-27T00:50:36.392Z,100019.80
2018-11-27T00:53:11.219Z,100016.16
2018-11-27T00:55:44.042Z,100019.14
2018-11-27T00:58:16.744Z,100029.74
2018-11-27T01:00:52.531Z,100030.62
2018-11-27T01:03:30.570Z,100036.73
2018-11-27T01:06:03.618Z,100038.83
2018-11-27T01:08:36.950Z,100039.92
2018-11-27T01:11:09.925Z,100037.12
2018-11-27T01:13:42.674Z,100039.03
2018-11-27T01:16:16.077Z,100043.63
2018-11-27T01:18:49.348Z,100048.36
2018-11-27T01:21:23.230Z,100048.33
2018-11-27T01:23:56.782Z,100049.05
2018-11-27T01:26:29.672Z,100049.31
2018-11-27T01:29:02.440Z,100052.55
2018-11-27T01:31:35.868Z,100064.41
2018-11-27T01:34:08.570Z,100065.09
2018-11-27T01:36:41.441Z,100066.36
2018-11-27T01:39:15.834Z,100061.05
2018-11-27T01:41:48.630Z,100063.25
2018-11-27T01:44:21.374Z,100063.61
2018-11-27T01:46:55.855Z,100058.09
2018-11-27T01:49:28.862Z,100063.03
2018-11-27T01:52:01.771Z,100067.63
2018-11-27T01:54:35.192Z,100066.22
2018-11-27T01:57:08.158Z,100067.83
2018-11-27T01:59:40.962Z,100070.95
2018-11-27T02:02:16.336Z,100068.11
2018-11-27T02:04:49.225Z,100072.69
2018-11-27T02:07:22.169Z,100076.08
2018-11-27T02:09:55.822Z,100075.30
2018-11-27T02:12:30.098Z,100073.97
2018-11-27T02:15:05.315Z,100071.77
2018-11-27T02:17:38.736Z,100067.28
2018-11-27T02:20:13.184Z,100063.58
2018-11-27T02:22:49.407Z,100061.74
2018-11-27T02:25:27.608Z,100063.13
2018-11-27T02:28:00.701Z,100055.10
2018-11-27T02:30:33.509Z,100050.52
2018-11-27T02:33:08.997Z,100052.92
2018-11-27T02:35:42.093Z,100054.19
2018-11-27T02:38:14.872Z,100058.31
2018-11-27T02:40:48.118Z,100056.14
2018-11-27T02:43:20.941Z,100058.47
2018-11-27T02:45:54.247Z,100061.75
2018-11-27T02:48:27.607Z,100057.75
2018-11-27T02:51:00.519Z,100056.26
2018-11-27T02:53:33.435Z,100058.44
2018-11-27T02:56:06.861Z,100057.06
2018-11-27T02:58:40.123Z,100065.28
2018-11-27T03:01:13.046Z,100070.35
2018-11-27T03:03:46.412Z,100074.45
2018-11-27T03:06:19.590Z,100078.05
2018-11-27T03:08:53.338Z,100083.20
2018-11-27T03:11:26.658Z,100082.80
2018-11-27T03:13:59.541Z,100083.06
2018-11-27T03:16:32.536Z,100085.97
2018-11-27T03:19:06.571Z,100091.78
2018-11-27T03:21:39.691Z,100097.34
2018-11-27T03:24:13.602Z,100095.91
2018-11-27T03:26:46.991Z,100098.19
2018-11-27T03:29:20.090Z,100095.36
2018-11-27T03:31:53.979Z,100101.01
2018-11-27T03:34:28.403Z,100105.37
2018-11-27T03:37:02.986Z,100107.45
2018-11-27T03:39:36.359Z,100103.41
2018-11-27T03:42:09.640Z,100103.44
2018-11-27T03:44:42.723Z,100102.09
2018-11-27T03:47:15.588Z,100107.77
2018-11-27T03:49:48.978Z,100109.45
2018-11-27T03:52:21.804Z,100120.77
2018-11-27T03:54:55.156Z,100118.05
2018-11-27T03:57:28.929Z,100123.33
2018-11-27T04:00:01.830Z,100126.42
2018-11-27T04:02:37.418Z,100124.48
2018-11-27T04:05:12.407Z,100125.95
2018-11-27T04:07:45.334Z,100126.45
2018-11-27T04:10:20.324Z,100129.67
2018-11-27T04:12:53.672Z,100133.11
2018-11-27T04:15:26.537Z,100133.33
2018-11-27T04:17:59.362Z,100137.80
2018-11-27T04:20:32.744Z,100139.72
2018-11-27T04:23:05.588Z,100139.63
2018-11-27T04:25:38.587Z,100139.11
2018-11-27T04:28:13.014Z,100141.41
2018-11-27T04:30:46.410Z,100141.59
2018-11-27T04:33:19.206Z,100148.05
2018-11-27T04:35:52.537Z,100144.58
2018-11-27T04:38:25.424Z,100148.15
2018-11-27T04:40:58.274Z,100146.56
2018-11-27T04:43:31.606Z,100149.83
2018-11-27T04:46:04.745Z,100151.33
2018-11-27T04:48:37.678Z,100150.91
2018-11-27T04:51:10.987Z,100149.22
2018-11-27T04:53:43.911Z,100151.68
2018-11-27T04:56:17.828Z,100157.47
2018-11-27T04:58:51.318Z,100158.48
2018-11-27T05:01:25.334Z,100166.00
2018-11-27T05:03:58.699Z,100164.59
2018-11-27T05:06:31.742Z,100174.03
2018-11-27T05:09:09.049Z,100180.14
2018-11-27T05:11:43.029Z,100174.41
2018-11-27T05:14:15.702Z,100175.38
2018-11-27T05:16:49.012Z,100173.43
2018-11-27T05:19:22.285Z,100173.35
2018-11-27T05:21:56.452Z,100168.64
2018-11-27T05:24:31.083Z,100174.20
2018-11-27T05:27:05.049Z,100179.52
2018-11-27T05:29:37.854Z,100179.64
2018-11-27T05:32:12.533Z,100179.70
2018-11-27T05:34:47.391Z,100177.89
2018-11-27T05:37:20.575Z,100178.88
2018-11-27T05:39:53.974Z,100185.02
2018-11-27T05:42:27.772Z,100188.20
2018-11-27T05:45:14.382Z,100192.92
2018-11-27T05:47:48.328Z,100194.55
2018-11-27T05:50:21.126Z,100196.44
2018-11-27T05:52:56.579Z,100191.53
2018-11-27T05:55:30.837Z,100201.23
2018-11-27T05:58:06.352Z,100198.52
2018-11-27T06:00:40.718Z,100197.96
2018-11-27T06:03:13.633Z,100194.13
2018-11-27T06:05:47.755Z,100195.38
2018-11-27T06:08:22.516Z,100203.27
2018-11-27T06:10:55.905Z,100206.81
2018-11-27T06:13:29.236Z,100210.17
2018-11-27T06:16:02.333Z,100212.68
2018-11-27T06:18:35.202Z,100218.47
2018-11-27T06:21:08.894Z,100215.58
2018-11-27T06:23:41.745Z,100214.95
2018-11-27T06:26:14.837Z,100218.40
2018-11-27T06:28:53.198Z,100229.61
2018-11-27T06:31:26.551Z,100240.53
2018-11-27T06:33:59.420Z,100241.02
2018-11-27T06:36:32.622Z,100243.94
2018-11-27T06:39:09.138Z,100242.08
2018-11-27T06:41:41.923Z,100242.59
2018-11-27T06:44:15.909Z,100248.38
2018-11-27T06:46:48.685Z,100252.77
2018-11-27T06:49:21.898Z,100254.02
2018-11-27T06:51:56.130Z,100252.80
2018-11-27T06:54:30.329Z,100261.50
2018-11-27T06:57:03.790Z,100264.09
2018-11-27T06:59:38.214Z,100268.56
2018-11-27T07:02:10.958Z,100272.34
2018-11-27T07:04:44.489Z,100270.47
2018-11-27T07:07:18.545Z,100273.53
2018-11-27T07:09:52.118Z,100273.66
2018-11-27T07:12:25.300Z,100278.46
2018-11-27T07:14:58.651Z,100281.27
2018-11-27T07:17:31.521Z,100289.11
2018-11-27T07:20:11.884Z,100295.03
2018-11-27T07:22:46.743Z,100305.44
2018-11-27T07:25:24.337Z,100307.58
2018-11-27T07:27:58.751Z,100315.49
2018-11-27T07:30:33.233Z,100319.30
2018-11-27T07:33:09.475Z,100324.20
2018-11-27T07:35:42.893Z,100323.23
2018-11-27T07:38:16.627Z,100323.66
2018-11-27T07:40:51.372Z,100323.50
2018-11-27T07:43:25.694Z,100321.80
2018-11-27T07:45:59.044Z,100323.27
2018-11-27T07:48:31.937Z,100325.19
2018-11-27T07:51:06.398Z,100323.95
2018-11-27T07:53:39.271Z,100326.20
2018-11-27T07:56:12.273Z,100327.38
2018-11-27T07:58:46.799Z,100326.66
2018-11-27T08:01:22.776Z,100323.20
2018-11-27T08:03:57.311Z,100321.59
2018-11-27T08:06:31.466Z,100324.61
2018-11-27T08:09:08.680Z,100326.05
2018-11-27T08:11:41.951Z,100332.73
2018-11-27T08:14:16.417Z,100335.97
2018-11-27T08:16:49.897Z,100338.48
2018-11-27T08:19:22.736Z,100336.74
2018-11-27T08:21:56.547Z,100338.89
2018-11-27T08:24:29.675Z,100341.59
2018-11-27T08:27:02.528Z,100342.70
2018-11-27T08:29:39.030Z,100347.72
2018-11-27T08:32:13.152Z,100343.27
2018-11-27T08:34:45.996Z,100348.16
2018-11-27T08:37:19.575Z,100346.56
2018-11-27T08:39:53.029Z,100352.39
2018-11-27T08:42:25.915Z,100355.11
2018-11-27T08:45:00.751Z,100354.33
2018-11-27T08:47:35.027Z,100359.55
2018-11-27T08:50:24.401Z,100362.24
2018-11-27T08:53:05.435Z,100359.21
2018-11-27T08:55:43.491Z,100362.19
2018-11-27T08:58:21.490Z,100365.73
2018-11-27T09:01:04.409Z,100361.50
2018-11-27T09:03:37.499Z,100368.23
2018-11-27T09:06:11.757Z,100366.70
2018-11-27T09:08:45.631Z,100369.53
2018-11-27T09:11:18.352Z,100368.98
2018-11-27T09:13:52.124Z,100372.23
2018-11-27T09:16:27.495Z,100373.27
2018-11-27T09:19:03.917Z,100378.91
2018-11-27T09:21:38.305Z,100380.00
2018-11-27T09:24:12.388Z,100383.33
2018-11-27T09:26:46.302Z,100388.45
2018-11-27T09:29:22.630Z,100391.09
2018-11-27T09:31:55.737Z,100389.64
2018-11-27T09:34:29.223Z,100389.22
2018-11-27T09:37:04.617Z,100391.60
2018-11-27T09:39:39.115Z,100390.49
2018-11-27T09:42:13.669Z,100397.41
2018-11-27T09:44:47.131Z,100394.49
2018-11-27T09:47:20.852Z,100396.02
2018-11-27T09:49:54.568Z,100394.70
2018-11-27T09:52:32.635Z,100392.50
2018-11-27T09:55:11.681Z,100391.86
2018-11-27T09:57:44.586Z,100385.38
2018-11-27T10:00:40.477Z,100385.47
2018-11-27T10:03:25.932Z,100385.44
2018-11-27T10:05:59.183Z,100384.02
2018-11-27T10:08:32.815Z,100378.41
2018-11-27T10:11:08.265Z,100378.48
2018-11-27T10:13:42.076Z,100379.47
2018-11-27T10:16:21.549Z,100376.47
2018-11-27T10:18:55.940Z,100376.47
2018-11-27T10:21:29.023Z,100370.64
2018-11-27T10:24:03.739Z,100366.67
2018-11-27T10:26:37.261Z,100368.97
2018-11-27T10:29:10.164Z,100363.63
2018-11-27T10:31:44.216Z,100356.97
2018-11-27T10:34:18.232Z,100361.61
2018-11-27T10:36:51.856Z,100361.11
2018-11-27T10:39:27.458Z,100360.92
2018-11-27T10:42:00.694Z,100361.63
2018-11-27T10:44:34.934Z,100363.61
2018-11-27T10:47:11.219Z,100361.30
2018-11-27T10:49:45.209Z,100364.52
2018-11-27T10:52:19.632Z,100362.98
2018-11-27T10:54:54.537Z,100370.45
2018-11-27T10:57:28.463Z,100368.58
2018-11-27T11:00:03.514Z,100368.54
2018-11-27T11:02:37.791Z,100368.61
2018-11-27T11:05:10.849Z,100373.79
2018-11-27T11:07:45.485Z,100375.64
2018-11-27T11:10:19.920Z,100380.13
2018-11-27T11:12:52.981Z,100381.80
2018-11-27T11:15:27.844Z,100385.58
2018-11-27T11:18:01.152Z,100385.83
2018-11-27T11:20:35.373Z,100384.23
2018-11-27T11:23:12.890Z,100391.55
2018-11-27T11:25:46.381Z,100396.44
2018-11-27T11:28:27.007Z,100392.88
2018-11-27T11:30:59.848Z,100391.45
2018-11-27T11:33:34.397Z,100388.63
2018-11-27T11:36:07.932Z,100385.19
2018-11-27T11:38:41.257Z,100389.44
2018-11-27T11:41:15.379Z,100387.79
2018-11-27T11:43:49.008Z,100392.45
2018-11-27T11:46:22.326Z,100391.30
2018-11-27T11:49:01.869Z,100395.03
2018-11-27T11:51:37.210Z,100391.32
2018-11-27T11:54:11.014Z,100392.64
2018-11-27T11:56:44.285Z,100389.09
2018-11-27T11:59:17.597Z,100388.95
2018-11-27T12:01:52.832Z,100390.38
2018-11-27T12:04:28.759Z,100395.42
2018-11-27T12:07:01.921Z,100401.22
2018-11-27T12:09:35.494Z,100400.98
2018-11-27T12:12:12.999Z,100398.08
2018-11-27T12:14:48.121Z,100401.38
2018-11-27T12:17:21.872Z,100402.64
2018-11-27T12:19:54.925Z,100411.66
2018-11-27T12:22:31.008Z,100416.50
2018-11-27T12:25:07.773Z,100411.53
2018-11-27T12:27:41.855Z,100408.57
2018-11-27T12:30:26.891Z,100402.59
2018-11-27T12:33:07.668Z,100407.94
2018-11-27T12:35:40.710Z,100417.23
2018-11-27T12:38:16.127Z,100422.11
2018-11-27T12:40:51.838Z,100424.19
2018-11-27T12:43:28.980Z,100420.28
2018-11-27T12:46:04.079Z,100418.80
2018-11-27T12:48:37.050Z,100420.73
2018-11-27T12:51:11.644Z,100425.97
2018-11-27T12:53:45.821Z,100429.27
2018-11-27T12:56:21.553Z,100429.34
2018-11-27T12:58:56.090Z,100432.23
2018-11-27T13:01:30.541Z,100431.45
2018-11-27T13:04:04.688Z,100435.58
2018-11-27T13:06:40.947Z,100436.33
2018-11-27T13:09:15.411Z,100438.22
2018-11-27T13:11:53.145Z,100437.07
2018-11-27T13:14:29.340Z,100435.29
2018-11-27T13:17:04.703Z,100433.20
2018-11-27T13:19:40.649Z,100432.63
2018-11-27T13:22:16.248Z,100430.37
2018-11-27T13:24:54.720Z,100434.13
2018-11-27T13:27:29.574Z,100433.09
2018-11-27T13:30:05.789Z,100434.00
2018-11-27T13:32:47.488Z,100431.27
2018-11-27T13:35:20.923Z,100424.56
2018-11-27T13:38:03.454Z,100422.25
2018-11-27T13:40:42.433Z,100433.96
2018-11-27T13:43:32.306Z,100429.67
2018-11-27T13:46:08.677Z,100426.84
2018-11-27T13:48:48.721Z,100428.05
2018-11-27T13:51:27.710Z,100430.06
2018-11-27T13:54:05.136Z,100431.47
2018-11-27T13:56:39.226Z,100428.56
2018-11-27T13:59:16.842Z,100424.16
2018-11-27T14:01:54.009Z,100421.95
2018-11-27T14:04:31.575Z,100421.11
2018-11-27T14:07:07.290Z,100423.45
2018-11-27T14:09:41.688Z,100432.45
2018-11-27T14:12:18.316Z,100439.92
2018-11-27T14:14:56.110Z,100445.84
2018-11-27T14:17:32.025Z,100452.17
2018-11-27T14:20:06.779Z,100445.78
2018-11-27T14:22:45.222Z,100448.80
2018-11-27T14:25:19.117Z,100446.75
2018-11-27T14:27:56.555Z,100444.33
2018-11-27T14:30:31.807Z,100451.27
2018-11-27T14:33:08.442Z,100452.33
2018-11-27T14:35:44.242Z,100461.73
2018-11-27T14:38:22.490Z,100461.75
2018-11-27T14:41:01.719Z,100456.81
2018-11-27T14:43:37.672Z,100460.72
2018-11-27T14:46:14.706Z,100464.35
2018-11-27T14:48:55.853Z,100467.46
2018-11-27T14:51:30.809Z,100473.12
2018-11-27T14:54:07.111Z,100478.15
2018-11-27T14:56:44.307Z,100479.53
2018-11-27T14:59:20.271Z,100482.60
2018-11-27T15:01:56.809Z,100485.38
2018-11-27T15:04:41.532Z,100486.50
2018-11-27T15:07:17.317Z,100486.11
2018-11-27T15:09:54.889Z,100482.92
2018-11-27T15:12:38.249Z,100480.45
2018-11-27T15:15:20.104Z,100478.61
2018-11-27T15:17:54.520Z,100485.45
2018-11-27T15:20:29.934Z,100489.20
2018-11-27T15:23:09.475Z,100490.30
2018-11-27T15:25:44.880Z,100487.86
2018-11-27T15:28:19.416Z,100489.99
2018-11-27T15:30:58.380Z,100491.75
2018-11-27T15:33:34.912Z,100496.16
2018-11-27T15:36:09.534Z,100494.40
2018-11-27T15:38:45.566Z,100493.92
2018-11-27T15:41:18.453Z,100490.91
2018-11-27T15:43:54.506Z,100492.84
2018-11-27T15:46:29.659Z,100492.21
2018-11-27T15:49:08.090Z,100483.39
2018-11-27T15:51:43.736Z,100488.82
2018-11-27T15:54:17.785Z,100490.81
2018-11-27T15:57:01.533Z,100489.86
2018-11-27T15:59:37.728Z,100483.94
2018-11-27T16:02:12.823Z,100478.91
2018-11-27T16:04:51.343Z,100482.62
2018-11-27T16:07:25.356Z,100489.81
2018-11-27T16:10:01.562Z,100484.40
2018-11-27T16:12:35.959Z,100488.86
2018-11-27T16:15:14.822Z,100485.72
2018-11-27T16:17:49.886Z,100492.22
2018-11-27T16:20:24.595Z,100487.34
2018-11-27T16:23:00.416Z,100486.92
2018-11-27T16:25:34.940Z,100486.59
2018-11-27T16:28:13.102Z,100488.54
2018-11-27T16:30:49.382Z,100486.64
2018-11-27T16:33:27.595Z,100482.09
2018-11-27T16:36:04.020Z,100489.23
2018-11-27T16:38:40.157Z,100492.08
2018-11-27T16:41:17.939Z,100500.02
2018-11-27T16:43:52.464Z,100500.38
2018-11-27T16:46:26.161Z,100499.22
2018-11-27T16:48:59.234Z,100498.51
2018-11-27T16:51:33.785Z,100505.42
2018-11-27T16:54:09.193Z,100508.64
2018-11-27T16:56:46.128Z,100507.28
2018-11-27T16:59:21.567Z,100501.59
2018-11-27T17:01:55.398Z,100511.23
2018-11-27T17:04:31.281Z,100514.47
2018-11-27T17:07:08.020Z,100520.20
2018-11-27T17:09:43.762Z,100521.73
2018-11-27T17:12:17.760Z,100512.28
2018-11-27T17:14:55.806Z,100513.05
2018-11-27T17:17:29.345Z,100511.14
2018-11-27T17:20:06.909Z,100513.45
2018-11-27T17:22:44.614Z,100512.46
2018-11-27T17:25:24.094Z,100508.02
2018-11-27T17:28:17.084Z,100506.41
2018-11-27T17:31:03.781Z,100501.21
2018-11-27T17:34:06.359Z,100503.53
2018-11-27T17:36:53.440Z,100510.92
2018-11-27T17:39:29.062Z,100511.14
2018-11-27T17:42:06.331Z,100506.42
2018-11-27T17:44:41.275Z,100513.75
2018-11-27T17:47:14.916Z,100518.00
2018-11-27T17:49:49.385Z,100517.06
2018-11-27T17:52:24.423Z,100513.73
2018-11-27T17:55:02.094Z,100515.42
2018-11-27T17:57:37.817Z,100516.52
2018-11-27T18:00:31.600Z,100513.02
2018-11-27T18:03:10.451Z,100506.25
2018-11-27T18:05:46.652Z,100502.91
2018-11-27T18:08:36.134Z,100510.50
2018-11-27T18:11:11.621Z,100513.51
2018-11-27T18:13:53.146Z,100518.70
2018-11-27T18:16:27.061Z,100528.44
2018-11-27T18:19:14.478Z,100530.14
2018-11-27T18:21:53.811Z,100524.08
2018-11-27T18:24:27.828Z,100523.48
2018-11-27T18:27:03.267Z,100519.27
2018-11-27T18:29:37.014Z,100519.31
2018-11-27T18:32:14.702Z,100520.50
2018-11-27T18:34:52.357Z,100515.31
2018-11-27T18:37:28.849Z,100510.61
2018-11-27T18:40:02.704Z,100508.51
2018-11-27T18:42:36.481Z,100505.40
2018-11-27T18:45:24.619Z,100507.39
2018-11-27T18:48:00.035Z,100506.80
2018-11-27T18:50:39.088Z,100508.88
2018-11-27T18:53:14.179Z,100505.98
2018-11-27T18:55:47.826Z,100507.05
2018-11-27T18:58:41.336Z,100503.67
2018-11-27T19:01:17.293Z,100500.06
2018-11-27T19:03:51.173Z,100494.34
2018-11-27T19:06:26.596Z,100500.87
2018-11-27T19:09:00.205Z,100499.29
2018-11-27T19:11:37.039Z,100494.33
2018-11-27T19:14:12.522Z,100493.86
2018-11-27T19:16:55.643Z,100486.20
2018-11-27T19:19:29.748Z,100488.98
2018-11-27T19:22:09.530Z,100500.30
2018-11-27T19:24:44.819Z,100502.64
2018-11-27T19:27:24.865Z,100503.67
2018-11-27T19:30:00.360Z,100502.11
2018-11-27T19:32:36.762Z,100493.70
2018-11-27T19:35:15.799Z,100496.01
2018-11-27T19:37:52.219Z,100497.28
2018-11-27T19:40:26.584Z,100502.66
2018-11-27T19:43:01.941Z,100511.81
2018-11-27T19:45:38.840Z,100507.52
2018-11-27T19:48:15.133Z,100517.48
2018-11-27T19:50:52.287Z,100520.72
2018-11-27T19:53:26.490Z,100520.81
2018-11-27T19:56:03.137Z,100518.74
2018-11-27T19:58:39.110Z,100520.52
2018-11-27T20:01:14.565Z,100518.14
2018-11-27T20:03:50.583Z,100522.30
2018-11-27T20:06:25.553Z,100516.97
2018-11-27T20:09:05.586Z,100520.73
2018-11-27T20:11:40.243Z,100517.16
2018-11-27T20:14:15.557Z,100518.11
2018-11-27T20:16:51.004Z,100519.47
2018-11-27T20:19:27.156Z,100527.00
2018-11-27T20:22:04.151Z,100528.17
2018-11-27T20:24:39.309Z,100535.14
2018-11-27T20:27:15.890Z,100540.25
2018-11-27T20:29:50.743Z,100536.61
2018-11-27T20:32:27.601Z,100533.81
2018-11-27T20:35:12.619Z,100534.98
2018-11-27T20:37:54.405Z,100528.89
2018-11-27T20:40:28.561Z,100530.97
2018-11-27T20:43:06.729Z,100539.75
2018-11-27T20:45:44.574Z,100530.47
2018-11-27T20:48:22.126Z,100529.97
2018-11-27T20:51:05.388Z,100533.28
2018-11-27T20:53:49.526Z,100532.85
2018-11-27T20:56:23.211Z,100530.18
2018-11-27T20:59:01.939Z,100522.81
2018-11-27T21:01:37.956Z,100518.82
2018-11-27T21:04:12.847Z,100522.33
2018-11-27T21:06:54.582Z,100527.30
2018-11-27T21:09:28.749Z,100525.48
2018-11-27T21:12:02.145Z,100523.36
2018-11-27T21:14:38.045Z,100530.12
2018-11-27T21:17:14.431Z,100527.17
2018-11-27T21:19:49.713Z,100514.90
2018-11-27T21:22:24.690Z,100526.48
2018-11-27T21:25:01.926Z,100523.72
2018-11-27T21:27:38.740Z,100530.27
2018-11-27T21:30:19.787Z,100537.36
2018-11-27T21:32:54.921Z,100538.22
2018-11-27T21:35:28.906Z,100538.50
2018-11-27T21:38:04.535Z,100542.44
2018-11-27T21:40:38.538Z,100543.74
2018-11-27T21:43:15.147Z,100539.42
2018-11-27T21:46:04.929Z,100537.50
2018-11-27T21:48:48.752Z,100539.56
2018-11-27T21:51:49.119Z,100542.00
2018-11-27T21:54:36.375Z,100540.80
2018-11-27T21:57:11.641Z,100540.25
2018-11-27T22:00:16.643Z,100534.16
2018-11-27T22:03:14.549Z,100525.08
2018-11-27T22:05:53.007Z,100530.70
2018-11-27T22:08:28.094Z,100530.20
2018-11-27T22:11:02.708Z,100523.72
2018-11-27T22:13:40.376Z,100525.64
2018-11-27T22:16:14.447Z,100524.00
2018-11-27T22:18:53.316Z,100527.91
2018-11-27T22:21:26.950Z,100529.50
2018-11-27T22:24:00.993Z,100531.58
2018-11-27T22:26:35.673Z,100536.38
2018-11-27T22:29:14.284Z,100532.43
2018-11-27T22:31:48.626Z,100526.55
2018-11-27T22:34:24.212Z,100527.50
2018-11-27T22:36:59.448Z,100527.88
2018-11-27T22:39:33.687Z,100530.09
2018-11-27T22:42:08.565Z,100526.20
2018-11-27T22:44:46.957Z,100528.55
2018-11-27T22:47:22.337Z,100531.08
2018-11-27T22:49:55.670Z,100534.09
2018-11-27T22:52:31.082Z,100540.05
2018-11-27T22:55:05.298Z,100529.98
2018-11-27T22:57:39.575Z,100522.73
2018-11-27T23:00:32.850Z,100535.67
2018-11-27T23:03:09.072Z,100520.99
2018-11-27T23:05:43.556Z,100524.53
2018-11-27T23:08:17.956Z,100515.37
2018-11-27T23:10:56.063Z,100511.25
2018-11-27T23:13:30.079Z,100521.00
2018-11-27T23:16:04.558Z,100512.97
2018-11-27T23:18:37.927Z,100511.37
2018-11-27T23:21:11.952Z,100508.37
2018-11-27T23:23:51.065Z,100508.55
2018-11-27T23:26:25.261Z,100501.29
2018-11-27T23:28:58.981Z,100512.63
2018-11-27T23:31:32.207Z,100509.31
2018-11-27T23:34:06.046Z,100502.58
2018-11-27T23:36:40.432Z,100509.59
2018-11-27T23:39:17.641Z,100511.48
2018-11-27T23:41:52.473Z,100504.28
2018-11-27T23:44:27.995Z,100503.86
2018-11-27T23:47:02.643Z,100512.70
2018-11-27T23:49:35.926Z,100509.88
2018-11-27T23:52:13.121Z,100513.30
2018-11-27T23:54:45.955Z,100507.91
2018-11-27T23:57:18.918Z,100499.63
2018-11-27T23:59:53.177Z,100496.85
